KOAR/OAR METAR and TAF weather

Enter ICAO airport designator
Station Type Date Time Source
KOAR METAR 2021/09/28 05:15 UTC NOAA

KOAR 280515Z AUTO 25009KT 4SM BR OVC004 14/13 A3007 RMK AO2


Station Type Date Time Source
KOAR Decoded METAR 2021/09/28 05:15 UTC NOAA

Station name not available
Sep 28, 2021 - 01:15 AM EDT / 2021.09.28 0515 UTC
Wind: from the WSW (250 degrees) at 10 MPH (9 KT):0
Visibility: 4 mile(s):0
Sky conditions: overcast
Weather: mist
Temperature: 57 F (14 C)
Dew Point: 55 F (13 C)
Relative Humidity: 93%
Pressure (altimeter): 30.07 in. Hg (1018 hPa)
ob: KOAR 280515Z AUTO 25009KT 4SM BR OVC004 14/13 A3007 RMK AO2
cycle: 5

Station Type Date Time Source
KOAR TAF UTC NOAA

Error!

Example: see airport list